createdAt,value
2023-02-12T15:16:16.109Z,7.42
2023-02-12T15:18:59.056Z,7.46
2023-02-12T15:21:31.995Z,7.50
2023-02-12T15:24:07.515Z,7.51
2023-02-12T15:26:41.625Z,7.48
2023-02-12T15:29:21.484Z,7.43
2023-02-12T15:31:56.731Z,7.38
2023-02-12T15:34:29.292Z,7.30
2023-02-12T15:37:01.137Z,7.27
2023-02-12T15:39:39.564Z,7.22
2023-02-12T15:42:26.849Z,7.18
2023-02-12T15:45:07.551Z,7.12
2023-02-12T15:47:37.890Z,7.14
2023-02-12T15:50:07.848Z,7.08
2023-02-12T15:52:41.422Z,7.02
2023-02-12T15:55:18.909Z,6.96
2023-02-12T15:57:52.321Z,6.87
2023-02-12T16:00:31.044Z,6.74
2023-02-12T16:03:01.228Z,6.74
2023-02-12T16:05:30.631Z,6.64
2023-02-12T16:08:00.084Z,6.58
2023-02-12T16:10:29.238Z,6.53
2023-02-12T16:12:58.149Z,6.50
2023-02-12T16:15:32.133Z,6.31
2023-02-12T16:18:04.546Z,6.37
2023-02-12T16:20:34.153Z,6.31
2023-02-12T16:23:08.757Z,6.28
2023-02-12T16:25:39.548Z,6.22
2023-02-12T16:28:18.377Z,6.18
2023-02-12T16:30:48.864Z,6.12
2023-02-12T16:33:36.537Z,6.03
2023-02-12T16:36:07.209Z,5.95
2023-02-12T16:38:43.031Z,5.86
2023-02-12T16:41:24.908Z,5.78
2023-02-12T16:44:24.929Z,5.70
2023-02-12T16:46:56.373Z,5.63
2023-02-12T16:49:28.269Z,5.55
2023-02-12T16:52:23.912Z,5.51
2023-02-12T16:54:52.653Z,5.49
2023-02-12T16:57:21.313Z,5.42
2023-02-12T16:59:50.291Z,5.37
2023-02-12T17:02:19.009Z,5.35
2023-02-12T17:04:49.281Z,5.38
2023-02-12T17:07:23.636Z,5.42
2023-02-12T17:09:52.842Z,5.42
2023-02-12T17:12:21.823Z,5.43
2023-02-12T17:14:51.961Z,5.47
2023-02-12T17:17:20.535Z,5.50
2023-02-12T17:19:50.764Z,5.49
2023-02-12T17:22:23.605Z,5.43
2023-02-12T17:24:55.012Z,5.41
2023-02-12T17:27:23.941Z,5.36
2023-02-12T17:29:52.754Z,5.33
2023-02-12T17:32:22.714Z,5.28
2023-02-12T17:34:53.288Z,5.24
2023-02-12T17:37:24.758Z,5.19
2023-02-12T17:39:54.627Z,5.12
2023-02-12T17:42:23.452Z,5.09
2023-02-12T17:44:52.237Z,5.06
2023-02-12T17:47:21.224Z,5.04
2023-02-12T17:49:50.010Z,5.01
2023-02-12T17:52:20.221Z,4.95
2023-02-12T17:54:49.026Z,4.93
2023-02-12T17:57:18.996Z,4.84
2023-02-12T17:59:47.714Z,4.72
2023-02-12T18:02:16.500Z,4.64
2023-02-12T18:04:45.464Z,4.60
2023-02-12T18:07:14.219Z,4.57
2023-02-12T18:09:44.501Z,4.55
2023-02-12T18:12:13.419Z,4.51
2023-02-12T18:14:42.124Z,4.48
2023-02-12T18:17:11.645Z,4.47
2023-02-12T18:19:40.480Z,4.44
2023-02-12T18:22:09.436Z,4.36
2023-02-12T18:24:38.374Z,4.33
2023-02-12T18:27:08.547Z,4.33
2023-02-12T18:29:37.316Z,4.32
2023-02-12T18:32:06.324Z,4.28
2023-02-12T18:34:36.047Z,4.24
2023-02-12T18:37:04.462Z,4.21
2023-02-12T18:39:33.295Z,4.16
2023-02-12T18:42:02.057Z,4.16
2023-02-12T18:44:32.542Z,4.08
2023-02-12T18:47:01.562Z,4.06
2023-02-12T18:49:30.354Z,4.04
2023-02-12T18:51:59.202Z,4.01
2023-02-12T18:54:27.907Z,3.99
2023-02-12T18:56:56.944Z,3.98
2023-02-12T18:59:27.339Z,3.96
2023-02-12T19:01:58.109Z,3.96
2023-02-12T19:04:28.151Z,3.94
2023-02-12T19:06:57.488Z,3.90
2023-02-12T19:09:27.415Z,3.76
2023-02-12T19:11:58.245Z,3.68
2023-02-12T19:14:28.980Z,3.65
2023-02-12T19:16:59.069Z,3.49
2023-02-12T19:19:28.400Z,3.41
2023-02-12T19:21:57.182Z,3.32
2023-02-12T19:24:37.628Z,3.27
2023-02-12T19:27:14.587Z,3.13
2023-02-12T19:29:43.471Z,2.98
2023-02-12T19:32:13.865Z,2.91
2023-02-12T19:34:42.721Z,2.88
2023-02-12T19:37:13.185Z,2.83
2023-02-12T19:39:42.229Z,2.81
2023-02-12T19:42:15.056Z,2.76
2023-02-12T19:44:44.640Z,2.68
2023-02-12T19:47:14.961Z,2.65
2023-02-12T19:49:44.676Z,2.52
2023-02-12T19:52:13.508Z,2.46
2023-02-12T19:54:42.267Z,2.50
2023-02-12T19:57:13.545Z,2.57
2023-02-12T19:59:43.433Z,2.49
2023-02-12T20:02:12.206Z,2.48
2023-02-12T20:04:42.447Z,2.44
2023-02-12T20:07:11.448Z,2.44
2023-02-12T20:09:40.254Z,2.39
2023-02-12T20:12:09.168Z,2.34
2023-02-12T20:14:38.052Z,2.31
2023-02-12T20:17:07.191Z,2.26
2023-02-12T20:19:36.238Z,2.17
2023-02-12T20:22:06.435Z,2.15
2023-02-12T20:24:36.153Z,2.11
2023-02-12T20:27:05.146Z,1.98
2023-02-12T20:29:34.119Z,1.95
2023-02-12T20:32:02.946Z,1.85
2023-02-12T20:34:42.468Z,1.75
2023-02-12T20:37:19.530Z,1.75
2023-02-12T20:39:48.572Z,1.74
2023-02-12T20:42:17.230Z,1.67
2023-02-12T20:44:46.081Z,1.61
2023-02-12T20:47:14.798Z,1.56
2023-02-12T20:49:43.767Z,1.47
2023-02-12T20:52:12.809Z,1.39
2023-02-12T20:54:43.128Z,1.37
2023-02-12T20:57:11.987Z,1.34
2023-02-12T20:59:41.065Z,1.39
2023-02-12T21:02:11.453Z,1.30
2023-02-12T21:04:40.294Z,1.27
2023-02-12T21:07:09.014Z,1.26
2023-02-12T21:09:37.856Z,1.24
2023-02-12T21:12:08.293Z,1.12
2023-02-12T21:14:37.004Z,1.03
2023-02-12T21:17:05.886Z,1.03
2023-02-12T21:19:37.415Z,1.08
2023-02-12T21:22:06.317Z,1.05
2023-02-12T21:24:35.335Z,1.07
2023-02-12T21:27:04.295Z,1.10
2023-02-12T21:29:34.482Z,1.11
2023-02-12T21:32:03.461Z,1.10
2023-02-12T21:34:32.275Z,1.04
2023-02-12T21:37:01.113Z,0.96
2023-02-12T21:39:29.965Z,0.99
2023-02-12T21:42:02.757Z,0.98
2023-02-12T21:44:35.605Z,0.94
2023-02-12T21:47:04.708Z,0.93
2023-02-12T21:49:33.413Z,0.89
2023-02-12T21:52:04.575Z,0.85
2023-02-12T21:54:33.837Z,0.82
2023-02-12T21:57:02.553Z,0.76
2023-02-12T21:59:32.517Z,0.77
2023-02-12T22:02:03.031Z,0.76
2023-02-12T22:04:31.976Z,0.71
2023-02-12T22:07:03.774Z,0.56
2023-02-12T22:09:33.077Z,0.48
2023-02-12T22:12:01.825Z,0.52
2023-02-12T22:14:31.023Z,0.46
2023-02-12T22:16:59.982Z,0.45
2023-02-12T22:19:30.301Z,0.39
2023-02-12T22:21:59.113Z,0.42
2023-02-12T22:24:27.859Z,0.45
2023-02-12T22:26:56.817Z,0.41
2023-02-12T22:29:25.527Z,0.42
2023-02-12T22:31:54.990Z,0.45
2023-02-12T22:34:23.905Z,0.30
2023-02-12T22:36:54.054Z,0.21
2023-02-12T22:39:22.826Z,0.22
2023-02-12T22:41:51.517Z,0.16
2023-02-12T22:44:21.401Z,0.14
2023-02-12T22:46:51.285Z,0.08
2023-02-12T22:49:20.316Z,0.05
2023-02-12T22:51:49.089Z,0.04
2023-02-12T22:54:20.605Z,0.03
2023-02-12T22:56:52.300Z,-0.10
2023-02-12T22:59:21.272Z,-0.13
2023-02-12T23:01:49.980Z,-0.07
2023-02-12T23:04:20.375Z,-0.09
2023-02-12T23:06:49.457Z,-0.15
2023-02-12T23:09:20.037Z,-0.17
2023-02-12T23:11:49.769Z,-0.09
2023-02-12T23:14:18.885Z,-0.04
2023-02-12T23:16:48.133Z,-0.04
2023-02-12T23:19:17.197Z,0.01
2023-02-12T23:21:46.022Z,0.02
2023-02-12T23:24:15.768Z,-0.01
2023-02-12T23:26:46.245Z,-0.08
2023-02-12T23:29:15.165Z,-0.09
2023-02-12T23:31:44.030Z,-0.13
2023-02-12T23:34:13.062Z,-0.09
2023-02-12T23:36:41.970Z,-0.09
2023-02-12T23:39:13.726Z,-0.04
2023-02-12T23:41:42.572Z,-0.07
2023-02-12T23:44:13.164Z,-0.16
2023-02-12T23:46:42.264Z,-0.15
2023-02-12T23:49:11.273Z,-0.14
2023-02-12T23:51:39.999Z,-0.13
2023-02-12T23:54:08.695Z,-0.06
2023-02-12T23:56:37.514Z,-0.11
2023-02-12T23:59:06.866Z,-0.09
